Time;durP1;ratioP1;P1;durP2;ratioP2;P2;SDS_P1;SDS_P2;PMS_P1;PMS_P2;Temp;Humidity;BMP_temperature;BMP_pressure;BME280_temperature;BME280_humidity;BME280_pressure;Samples;Min_cycle;Max_cycle;Signal;HPM_P1;HPM_P2
2023/03/03 00:00:30;;;;;;;;;;;;;;;5.12;88.82;100048.06;3170640;28;19923;-63
2023/03/03 00:02:01;;;;;;;;;;;;;;;5.11;88.81;100042.91;3170443;28;19934;-63
2023/03/03 00:03:33;;;;;;;;;;;;;;;5.11;88.80;100041.19;3170079;28;20396;-63
2023/03/03 00:05:04;;;;;;;;;;;;;;;5.14;88.90;100043.69;3170434;28;19924;-63
2023/03/03 00:06:36;;;;;;;;;;;;;;;5.17;88.96;100035.88;3170713;28;19930;-63
2023/03/03 00:08:09;;;;;;;;;;;;;;;5.18;88.63;100032.44;3170620;28;19924;-63
2023/03/03 00:09:41;;;;;;;;;;;;;;;5.20;88.74;100032.41;3170395;28;20025;-63
2023/03/03 00:11:12;;;;;;;;;;;;;;;5.20;88.54;100030.66;3170633;28;19931;-63
2023/03/03 00:12:46;;;;;;;;;;;;;;;5.22;88.52;100026.34;3170416;28;20446;-64
2023/03/03 00:14:21;;;;;;;;;;;;;;;5.24;88.56;100023.75;3171196;28;20416;-63
2023/03/03 00:15:53;;;;;;;;;;;;;;;5.25;88.48;100023.69;3174125;28;20408;-63
2023/03/03 00:17:25;;;;;;;;;;;;;;;5.27;88.47;100018.50;3170086;28;20353;-64
2023/03/03 00:18:56;;;;;;;;;;;;;;;5.29;88.23;100013.31;3170453;28;20548;-63
2023/03/03 00:20:32;;;;;;;;;;;;;;;5.30;88.38;100013.28;3170175;28;19923;-63
2023/03/03 00:22:14;;;;;;;;;;;;;;;5.31;88.30;100008.97;3170358;28;19924;-64
2023/03/03 00:23:47;;;;;;;;;;;;;;;5.31;88.09;100004.66;3170629;28;19970;-63
2023/03/03 00:25:27;;;;;;;;;;;;;;;5.29;88.05;100006.41;3170534;28;19927;-63
2023/03/03 00:27:02;;;;;;;;;;;;;;;5.32;88.16;100000.31;3170444;28;19924;-63
2023/03/03 00:28:40;;;;;;;;;;;;;;;5.31;88.19;99993.47;3170287;28;20584;-64
2023/03/03 00:30:17;;;;;;;;;;;;;;;5.31;88.18;99993.47;3169795;28;20338;-63
2023/03/03 00:31:49;;;;;;;;;;;;;;;5.31;87.97;99989.16;3170561;28;19924;-63
2023/03/03 00:33:32;;;;;;;;;;;;;;;5.32;87.95;99990.84;3166833;28;19931;-63
2023/03/03 00:35:19;;;;;;;;;;;;;;;5.32;87.85;99990.00;3164580;28;20018;-64
2023/03/03 00:36:53;;;;;;;;;;;;;;;5.30;87.79;99987.47;3170222;28;19931;-63
2023/03/03 00:38:24;;;;;;;;;;;;;;;5.30;87.92;99981.44;3170374;28;19924;-63
2023/03/03 00:40:08;;;;;;;;;;;;;;;5.29;87.81;99974.56;3170985;28;19928;-63
2023/03/03 00:41:40;;;;;;;;;;;;;;;5.31;87.77;99972.81;3172860;28;20014;-63
2023/03/03 00:43:18;;;;;;;;;;;;;;;5.33;87.81;99973.66;3172647;28;20518;-63
2023/03/03 00:44:55;;;;;;;;;;;;;;;5.35;87.83;99974.44;3172954;28;19928;-63
2023/03/03 00:46:26;;;;;;;;;;;;;;;5.36;87.70;99973.56;3172641;28;19924;-64
2023/03/03 00:48:10;;;;;;;;;;;;;;;5.37;87.62;99973.53;3172884;28;19924;-63
2023/03/03 00:49:41;;;;;;;;;;;;;;;5.39;87.52;99966.59;3172607;28;19987;-63
2023/03/03 00:51:21;;;;;;;;;;;;;;;5.41;87.42;99964.84;3172720;28;19924;-64
2023/03/03 00:52:55;;;;;;;;;;;;;;;5.42;87.43;99965.69;3172796;28;19928;-63
2023/03/03 00:54:27;;;;;;;;;;;;;;;5.41;87.26;99964.84;3172477;28;19973;-63
2023/03/03 00:56:00;;;;;;;;;;;;;;;5.44;87.27;99966.50;3172606;28;19930;-63
2023/03/03 00:57:30;;;;;;;;;;;;;;;5.45;87.22;99961.31;3172644;28;20454;-64
2023/03/03 00:59:02;;;;;;;;;;;;;;;5.46;87.34;99962.16;3172393;28;20011;-63
2023/03/03 01:00:32;;;;;;;;;;;;;;;5.47;87.31;99948.34;3172491;28;20071;-63
2023/03/03 01:02:04;;;;;;;;;;;;;;;5.48;87.11;99961.25;3172526;28;19931;-63
2023/03/03 01:03:35;;;;;;;;;;;;;;;5.48;87.13;99953.50;3172558;28;20316;-63
2023/03/03 01:05:06;;;;;;;;;;;;;;;5.51;87.26;99957.75;3172672;28;20498;-63
2023/03/03 01:06:38;;;;;;;;;;;;;;;5.54;87.11;99949.94;3172342;28;19924;-63
2023/03/03 01:08:09;;;;;;;;;;;;;;;5.55;86.89;99954.19;3172064;28;20029;-64
2023/03/03 01:09:40;;;;;;;;;;;;;;;5.56;86.97;99952.47;3172406;28;20581;-64
2023/03/03 01:11:15;;;;;;;;;;;;;;;5.56;86.82;99952.47;3172714;28;20008;-62
2023/03/03 01:12:46;;;;;;;;;;;;;;;5.57;86.80;99949.84;3172252;28;19927;-62
2023/03/03 01:14:18;;;;;;;;;;;;;;;5.57;86.84;99957.59;3173045;27;20319;-62
2023/03/03 01:15:50;;;;;;;;;;;;;;;5.58;86.76;99956.72;3185247;27;19984;-63
2023/03/03 01:17:20;;;;;;;;;;;;;;;5.60;86.89;99957.53;3177369;27;19928;-62
2023/03/03 01:18:52;;;;;;;;;;;;;;;5.60;86.60;99949.78;3172184;28;19943;-62
2023/03/03 01:20:22;;;;;;;;;;;;;;;5.60;86.53;99952.38;3172161;28;19927;-62
2023/03/03 01:21:54;;;;;;;;;;;;;;;5.59;86.44;99953.25;3172280;28;20384;-62
2023/03/03 01:23:26;;;;;;;;;;;;;;;5.57;86.47;99955.03;3172082;28;19923;-62
2023/03/03 01:24:56;;;;;;;;;;;;;;;5.56;86.63;99958.50;3172413;28;19927;-63
2023/03/03 01:26:30;;;;;;;;;;;;;;;5.57;86.59;99954.19;3171766;28;20565;-63
2023/03/03 01:28:00;;;;;;;;;;;;;;;5.58;86.61;99958.44;3172319;28;20022;-62
2023/03/03 01:29:32;;;;;;;;;;;;;;;5.58;86.34;99954.13;3174933;27;20416;-62
2023/03/03 01:31:05;;;;;;;;;;;;;;;5.60;86.36;99954.13;3184919;27;19976;-62
2023/03/03 01:32:37;;;;;;;;;;;;;;;5.61;86.33;99958.38;3184963;27;19987;-62
2023/03/03 01:34:08;;;;;;;;;;;;;;;5.61;86.47;99954.06;3169669;28;19924;-62
2023/03/03 01:35:42;;;;;;;;;;;;;;;5.64;86.44;99956.56;3172087;28;19935;-62
2023/03/03 01:37:13;;;;;;;;;;;;;;;5.64;86.33;99951.41;3172208;28;20135;-62
2023/03/03 01:38:45;;;;;;;;;;;;;;;5.67;86.19;99948.75;3159633;28;19931;-62
2023/03/03 01:40:18;;;;;;;;;;;;;;;5.69;86.00;99952.16;3159323;28;20000;-62
2023/03/03 01:41:51;;;;;;;;;;;;;;;5.73;86.01;99957.25;3159422;28;20308;-62
2023/03/03 01:43:23;;;;;;;;;;;;;;;5.74;86.00;99954.66;3159344;28;19924;-62
2023/03/03 01:45:13;;;;;;;;;;;;;;;5.74;86.29;99952.06;3159454;28;19981;-62
2023/03/03 01:46:48;;;;;;;;;;;;;;;5.76;86.06;99955.44;3159547;28;20011;-62
2023/03/03 01:48:23;;;;;;;;;;;;;;;5.76;86.13;99945.09;3162644;28;20031;-63
2023/03/03 01:49:55;;;;;;;;;;;;;;;5.78;85.83;99950.25;3172050;28;19935;-62
2023/03/03 01:51:28;;;;;;;;;;;;;;;5.78;85.78;99947.69;3171501;28;20064;-62
2023/03/03 01:53:02;;;;;;;;;;;;;;;5.78;85.92;99945.09;3172034;28;19935;-62
2023/03/03 01:54:35;;;;;;;;;;;;;;;5.78;85.96;99951.09;3171939;28;19931;-62
2023/03/03 01:56:08;;;;;;;;;;;;;;;5.78;85.67;99938.19;3171933;28;19928;-62
2023/03/03 01:57:44;;;;;;;;;;;;;;;5.79;85.81;99944.19;3171851;28;19927;-62
2023/03/03 01:59:18;;;;;;;;;;;;;;;5.80;85.80;99938.16;3172122;28;19924;-62
2023/03/03 02:00:51;;;;;;;;;;;;;;;5.81;85.87;99942.44;3171832;28;19928;-62
2023/03/03 02:02:23;;;;;;;;;;;;;;;5.80;85.48;99936.41;3171532;28;20423;-62
2023/03/03 02:03:53;;;;;;;;;;;;;;;5.79;85.59;99933.84;3171982;28;19931;-62
2023/03/03 02:05:25;;;;;;;;;;;;;;;5.79;85.59;99928.69;3171895;28;19923;-63
2023/03/03 02:07:00;;;;;;;;;;;;;;;5.78;85.51;99927.00;3171507;28;19938;-62
2023/03/03 02:08:36;;;;;;;;;;;;;;;5.79;85.33;99933.84;3171750;28;19928;-62
2023/03/03 02:10:10;;;;;;;;;;;;;;;5.80;85.47;99931.25;3171862;28;19924;-62
2023/03/03 02:11:44;;;;;;;;;;;;;;;5.81;85.38;99930.34;3171668;28;19928;-62
2023/03/03 02:13:16;;;;;;;;;;;;;;;5.80;85.12;99923.50;3171782;28;20309;-62
2023/03/03 02:14:47;;;;;;;;;;;;;;;5.82;85.11;99931.19;3176652;27;20014;-63
2023/03/03 02:16:19;;;;;;;;;;;;;;;5.83;85.00;99927.75;3184403;27;19923;-62
2023/03/03 02:17:54;;;;;;;;;;;;;;;5.82;85.15;99928.63;3171977;27;20235;-62
2023/03/03 02:19:30;;;;;;;;;;;;;;;5.82;85.12;99929.47;3171619;28;19977;-62
2023/03/03 02:21:05;;;;;;;;;;;;;;;5.81;84.97;99925.19;3171364;28;19934;-63
2023/03/03 02:22:43;;;;;;;;;;;;;;;5.80;84.82;99926.09;3171373;28;19938;-62
2023/03/03 02:24:18;;;;;;;;;;;;;;;5.80;84.73;99930.41;3171655;28;19997;-62
2023/03/03 02:25:53;;;;;;;;;;;;;;;5.79;84.82;99928.69;3171706;28;19924;-62
2023/03/03 02:27:25;;;;;;;;;;;;;;;5.77;84.65;99928.75;3171546;28;20388;-62
2023/03/03 02:28:57;;;;;;;;;;;;;;;5.77;84.71;99933.03;3171329;28;20023;-62
2023/03/03 02:30:27;;;;;;;;;;;;;;;5.75;84.67;99932.25;3171625;28;19931;-62
2023/03/03 02:31:59;;;;;;;;;;;;;;;5.74;84.61;99930.53;3171614;28;19923;-62
2023/03/03 02:33:31;;;;;;;;;;;;;;;5.74;84.34;99926.22;3166398;28;19928;-63
2023/03/03 02:35:22;;;;;;;;;;;;;;;5.73;84.55;99926.25;3163171;28;19980;-62
2023/03/03 02:36:54;;;;;;;;;;;;;;;5.73;84.55;99928.84;3171203;28;20301;-62
2023/03/03 02:38:26;;;;;;;;;;;;;;;5.72;84.32;99924.56;3171485;28;19924;-63
2023/03/03 02:39:58;;;;;;;;;;;;;;;5.70;84.37;99922.84;3170913;28;20011;-63
2023/03/03 02:41:31;;;;;;;;;;;;;;;5.70;84.10;99920.25;3171277;28;20006;-62
2023/03/03 02:43:05;;;;;;;;;;;;;;;5.72;84.17;99919.41;3171552;28;19988;-62
2023/03/03 02:44:36;;;;;;;;;;;;;;;5.73;84.05;99927.09;3171395;28;19928;-62
2023/03/03 02:46:07;;;;;;;;;;;;;;;5.74;84.05;99922.78;3171182;28;19980;-62
2023/03/03 02:47:38;;;;;;;;;;;;;;;5.74;84.20;99926.22;3171404;28;19927;-62
2023/03/03 02:49:11;;;;;;;;;;;;;;;5.76;84.10;99923.59;3171627;28;19924;-62
2023/03/03 02:50:42;;;;;;;;;;;;;;;5.77;84.00;99925.28;3171132;28;19931;-62
2023/03/03 02:52:16;;;;;;;;;;;;;;;5.75;84.00;99922.75;3171377;28;19924;-62
2023/03/03 02:53:48;;;;;;;;;;;;;;;5.74;84.02;99922.78;3171151;28;19924;-62
2023/03/03 02:55:19;;;;;;;;;;;;;;;5.74;83.87;99927.94;3171311;28;19924;-62
2023/03/03 02:56:50;;;;;;;;;;;;;;;5.73;84.02;99928.84;3171305;28;20312;-63
2023/03/03 02:58:23;;;;;;;;;;;;;;;5.73;83.99;99928.84;3171264;28;19927;-62
2023/03/03 02:59:55;;;;;;;;;;;;;;;5.73;84.00;99926.25;3171040;28;19924;-62
2023/03/03 03:01:26;;;;;;;;;;;;;;;5.74;83.85;99930.53;3171290;28;19928;-63
2023/03/03 03:02:57;;;;;;;;;;;;;;;5.74;83.92;99933.97;3170167;28;19924;-63
2023/03/03 03:04:29;;;;;;;;;;;;;;;5.73;83.80;99921.09;3171131;28;19928;-63
2023/03/03 03:06:00;;;;;;;;;;;;;;;5.76;83.78;99926.19;3171177;28;20469;-63
2023/03/03 03:07:31;;;;;;;;;;;;;;;5.75;83.57;99927.06;3171017;28;19927;-62
2023/03/03 03:09:03;;;;;;;;;;;;;;;5.74;83.57;99930.53;3170761;28;20442;-63
2023/03/03 03:10:34;;;;;;;;;;;;;;;5.70;83.54;99932.34;3171049;28;19927;-63
2023/03/03 03:12:06;;;;;;;;;;;;;;;5.65;83.67;99929.88;3171184;28;19995;-62
2023/03/03 03:13:39;;;;;;;;;;;;;;;5.61;83.63;99924.81;3170988;27;19961;-63
2023/03/03 03:15:11;;;;;;;;;;;;;;;5.58;83.44;99930.03;3170961;28;19943;-62
2023/03/03 03:16:42;;;;;;;;;;;;;;;5.56;83.62;99926.63;3170778;28;19982;-62
2023/03/03 03:18:14;;;;;;;;;;;;;;;5.52;83.49;99925.84;3170530;28;19931;-63
2023/03/03 03:19:45;;;;;;;;;;;;;;;5.48;83.36;99916.50;3170843;28;19924;-63
2023/03/03 03:21:16;;;;;;;;;;;;;;;5.44;83.22;99923.47;3170682;28;20392;-63
2023/03/03 03:22:47;;;;;;;;;;;;;;;5.43;83.45;99919.16;3170691;28;19923;-63
2023/03/03 03:24:18;;;;;;;;;;;;;;;5.39;83.29;99914.97;3170702;28;19924;-63
2023/03/03 03:25:49;;;;;;;;;;;;;;;5.38;83.43;99914.97;3170877;28;20382;-63
2023/03/03 03:27:22;;;;;;;;;;;;;;;5.35;83.40;99915.88;3170836;28;19928;-63
2023/03/03 03:28:55;;;;;;;;;;;;;;;5.33;83.30;99909.09;3170893;28;20293;-63
2023/03/03 03:30:25;;;;;;;;;;;;;;;5.30;83.23;99916.91;3181249;27;20327;-62
2023/03/03 03:31:57;;;;;;;;;;;;;;;5.29;83.20;99917.75;3183645;27;19935;-63
2023/03/03 03:33:28;;;;;;;;;;;;;;;5.25;83.33;99912.66;3170588;27;19982;-63
2023/03/03 03:35:00;;;;;;;;;;;;;;;5.22;83.31;99920.47;3158247;28;19947;-62
2023/03/03 03:36:32;;;;;;;;;;;;;;;5.20;83.14;99914.50;3158016;28;20316;-63
2023/03/03 03:38:03;;;;;;;;;;;;;;;5.19;83.14;99915.38;3164147;28;20093;-63
2023/03/03 03:39:35;;;;;;;;;;;;;;;5.17;83.17;99903.38;3170718;28;19977;-63
2023/03/03 03:41:07;;;;;;;;;;;;;;;5.15;83.36;99912.91;3170638;28;19935;-62
2023/03/03 03:42:38;;;;;;;;;;;;;;;5.13;83.37;99912.94;3170520;28;19928;-63
2023/03/03 03:44:11;;;;;;;;;;;;;;;5.11;83.26;99913.84;3170426;28;20309;-63
2023/03/03 03:45:43;;;;;;;;;;;;;;;5.10;83.32;99917.31;3170753;28;20517;-63
2023/03/03 03:47:14;;;;;;;;;;;;;;;5.09;83.30;99913.00;3170494;28;19931;-62
2023/03/03 03:48:46;;;;;;;;;;;;;;;5.07;83.25;99910.47;3170663;28;19953;-62
2023/03/03 03:50:17;;;;;;;;;;;;;;;5.06;83.39;99916.53;3170701;28;20009;-62
2023/03/03 03:51:48;;;;;;;;;;;;;;;5.07;83.25;99917.38;3170444;28;19950;-62
2023/03/03 03:53:19;;;;;;;;;;;;;;;5.06;83.17;99923.41;3170561;28;19972;-62
2023/03/03 03:54:50;;;;;;;;;;;;;;;5.06;83.33;99913.06;3170467;28;19983;-63
2023/03/03 03:56:22;;;;;;;;;;;;;;;5.04;83.36;99915.72;3170325;28;19928;-62
2023/03/03 03:57:52;;;;;;;;;;;;;;;5.02;83.43;99909.72;3170681;28;19923;-62
2023/03/03 03:59:25;;;;;;;;;;;;;;;4.99;83.30;99913.22;3170551;28;19946;-63
2023/03/03 04:01:01;;;;;;;;;;;;;;;4.99;83.44;99912.38;3170496;28;19939;-63
2023/03/03 04:02:33;;;;;;;;;;;;;;;4.99;83.51;99914.94;3170467;28;20242;-63
2023/03/03 04:04:05;;;;;;;;;;;;;;;4.98;83.60;99910.69;3170330;28;19924;-62
2023/03/03 04:05:36;;;;;;;;;;;;;;;4.97;83.54;99911.56;3170189;28;19928;-62
2023/03/03 04:07:08;;;;;;;;;;;;;;;4.96;83.67;99913.28;3170165;28;19931;-62
2023/03/03 04:08:39;;;;;;;;;;;;;;;4.97;83.54;99915.00;3170363;28;19923;-62
2023/03/03 04:10:11;;;;;;;;;;;;;;;4.98;83.60;99919.25;3170162;28;19928;-62
2023/03/03 04:11:43;;;;;;;;;;;;;;;4.99;83.58;99910.63;3170200;28;19928;-62
2023/03/03 04:13:14;;;;;;;;;;;;;;;4.99;83.64;99908.03;3170464;28;19923;-62
2023/03/03 04:14:47;;;;;;;;;;;;;;;5.00;83.62;99908.91;3169603;28;19989;-62
2023/03/03 04:16:19;;;;;;;;;;;;;;;5.01;83.72;99908.88;3170420;28;19939;-62
2023/03/03 04:17:50;;;;;;;;;;;;;;;5.03;83.95;99911.44;3157680;28;20492;-62
2023/03/03 04:19:22;;;;;;;;;;;;;;;5.04;83.84;99910.53;3157632;28;20408;-62
2023/03/03 04:20:53;;;;;;;;;;;;;;;5.06;83.97;99903.63;3157874;28;19924;-62
2023/03/03 04:22:25;;;;;;;;;;;;;;;5.07;84.04;99896.72;3157901;28;20000;-62
2023/03/03 04:23:56;;;;;;;;;;;;;;;5.09;83.95;99907.84;3157822;28;19932;-62
2023/03/03 04:25:27;;;;;;;;;;;;;;;5.09;84.01;99906.16;3157323;28;19924;-62
2023/03/03 04:26:59;;;;;;;;;;;;;;;5.08;83.98;99909.59;3157942;28;19924;-63
2023/03/03 04:28:31;;;;;;;;;;;;;;;5.07;84.01;99907.91;3157384;28;20337;-63
2023/03/03 04:30:05;;;;;;;;;;;;;;;5.05;84.23;99912.25;3157515;28;20306;-64
2023/03/03 04:31:36;;;;;;;;;;;;;;;5.04;84.02;99912.28;3157424;28;19928;-63
2023/03/03 04:33:07;;;;;;;;;;;;;;;5.02;84.18;99904.56;3155999;28;19924;-63
2023/03/03 04:34:39;;;;;;;;;;;;;;;4.99;84.13;99905.47;3154072;28;19959;-62
2023/03/03 04:36:11;;;;;;;;;;;;;;;5.01;84.36;99908.03;3157419;28;20468;-63
2023/03/03 04:37:42;;;;;;;;;;;;;;;5.02;84.15;99910.56;3157653;28;19962;-62
2023/03/03 04:39:14;;;;;;;;;;;;;;;5.03;84.38;99903.69;3157298;28;20321;-62
2023/03/03 04:40:44;;;;;;;;;;;;;;;5.03;84.29;99906.28;3157564;28;19924;-62
2023/03/03 04:42:16;;;;;;;;;;;;;;;5.03;84.47;99903.69;3157405;28;20025;-63
2023/03/03 04:43:47;;;;;;;;;;;;;;;5.02;84.54;99907.97;3157690;28;19936;-63
2023/03/03 04:45:21;;;;;;;;;;;;;;;5.02;84.48;99900.25;3157433;28;19924;-63
2023/03/03 04:46:52;;;;;;;;;;;;;;;5.03;84.45;99906.28;3157451;28;19928;-63
2023/03/03 04:48:24;;;;;;;;;;;;;;;5.02;84.35;99901.97;3157448;28;19932;-63
2023/03/03 04:49:55;;;;;;;;;;;;;;;5.03;84.53;99903.69;3157685;28;19924;-63
2023/03/03 04:51:27;;;;;;;;;;;;;;;5.05;84.47;99907.06;3157324;28;19928;-63
2023/03/03 04:52:58;;;;;;;;;;;;;;;5.05;84.67;99904.50;3157270;28;19943;-62
2023/03/03 04:54:30;;;;;;;;;;;;;;;5.07;84.47;99907.91;3157654;28;19931;-63
2023/03/03 04:56:01;;;;;;;;;;;;;;;5.08;84.31;99906.16;3157296;28;19935;-63
2023/03/03 04:57:33;;;;;;;;;;;;;;;5.08;84.52;99903.59;3157447;28;20353;-63
2023/03/03 04:59:04;;;;;;;;;;;;;;;5.08;84.47;99909.59;3157685;28;19928;-63
2023/03/03 05:00:37;;;;;;;;;;;;;;;5.09;84.70;99905.28;3157425;28;19946;-62
2023/03/03 05:02:09;;;;;;;;;;;;;;;5.09;84.64;99908.72;3157611;28;19986;-62
2023/03/03 05:03:40;;;;;;;;;;;;;;;5.08;84.61;99906.16;3157617;28;19924;-63
2023/03/03 05:05:12;;;;;;;;;;;;;;;5.09;84.52;99915.59;3157387;28;19932;-62
2023/03/03 05:06:43;;;;;;;;;;;;;;;5.09;84.72;99913.88;3157444;28;20019;-62
2023/03/03 05:08:15;;;;;;;;;;;;;;;5.10;84.75;99913.00;3157529;28;20324;-63
2023/03/03 05:09:46;;;;;;;;;;;;;;;5.10;84.68;99913.00;3157339;28;19928;-63
2023/03/03 05:11:18;;;;;;;;;;;;;;;5.10;84.62;99910.41;3156878;28;19924;-63
2023/03/03 05:12:49;;;;;;;;;;;;;;;5.10;84.66;99914.72;3157695;28;19935;-63
2023/03/03 05:14:20;;;;;;;;;;;;;;;5.11;84.70;99912.09;3157308;28;19924;-63
2023/03/03 05:15:55;;;;;;;;;;;;;;;5.11;84.84;99925.00;3157322;28;19928;-63
2023/03/03 05:17:27;;;;;;;;;;;;;;;5.11;84.70;99914.69;3166831;28;19977;-63
2023/03/03 05:18:58;;;;;;;;;;;;;;;5.12;84.76;99916.41;3169782;28;20064;-63
2023/03/03 05:20:30;;;;;;;;;;;;;;;5.13;84.81;99912.94;3170192;28;19924;-63
2023/03/03 05:22:01;;;;;;;;;;;;;;;5.15;84.84;99916.34;3170091;28;19932;-63
2023/03/03 05:23:32;;;;;;;;;;;;;;;5.16;85.03;99917.19;3170144;28;20410;-62
2023/03/03 05:25:04;;;;;;;;;;;;;;;5.17;84.83;99921.47;3169734;28;20412;-62
2023/03/03 05:26:35;;;;;;;;;;;;;;;5.17;84.88;99919.72;3171552;28;19928;-63
2023/03/03 05:28:06;;;;;;;;;;;;;;;5.19;84.76;99923.13;3172434;28;20155;-63
2023/03/03 05:29:37;;;;;;;;;;;;;;;5.20;84.73;99916.22;3176092;27;19930;-63
2023/03/03 05:31:10;;;;;;;;;;;;;;;5.20;84.89;99914.50;3185155;27;19923;-63
2023/03/03 05:32:42;;;;;;;;;;;;;;;5.21;84.84;99918.78;3185136;27;19927;-63
2023/03/03 05:34:13;;;;;;;;;;;;;;;5.22;84.64;99917.06;3172759;27;19924;-63
2023/03/03 05:35:45;;;;;;;;;;;;;;;5.23;84.76;99923.91;3159594;28;20313;-62
2023/03/03 05:37:16;;;;;;;;;;;;;;;5.22;84.63;99925.63;3159688;28;19935;-63
2023/03/03 05:38:47;;;;;;;;;;;;;;;5.24;84.62;99921.31;3159811;28;20003;-62
2023/03/03 05:40:18;;;;;;;;;;;;;;;5.26;84.68;99921.25;3170872;28;19924;-63
2023/03/03 05:41:50;;;;;;;;;;;;;;;5.27;84.72;99920.41;3171982;28;19971;-63
2023/03/03 05:43:21;;;;;;;;;;;;;;;5.28;84.72;99916.91;3172341;28;19985;-63
2023/03/03 05:44:53;;;;;;;;;;;;;;;5.31;84.55;99921.16;3172225;28;19974;-63
2023/03/03 05:46:26;;;;;;;;;;;;;;;5.33;84.56;99922.00;3172166;28;19924;-63
2023/03/03 05:47:57;;;;;;;;;;;;;;;5.34;84.42;99921.09;3172197;28;19969;-63
2023/03/03 05:49:28;;;;;;;;;;;;;;;5.36;84.46;99927.09;3171608;28;20346;-63
2023/03/03 05:51:00;;;;;;;;;;;;;;;5.36;84.31;99924.50;3172046;28;19923;-63
2023/03/03 05:52:31;;;;;;;;;;;;;;;5.35;84.21;99933.13;3172156;28;20087;-63
2023/03/03 05:54:03;;;;;;;;;;;;;;;5.36;84.43;99930.53;3172020;28;19928;-63
2023/03/03 05:55:35;;;;;;;;;;;;;;;5.36;84.33;99927.09;3171833;28;19935;-63
2023/03/03 05:57:06;;;;;;;;;;;;;;;5.37;84.58;99926.19;3165672;28;19924;-64
2023/03/03 05:58:38;;;;;;;;;;;;;;;5.38;84.42;99930.47;3159705;28;19925;-63
2023/03/03 06:00:10;;;;;;;;;;;;;;;5.36;84.31;99925.34;3159423;28;19931;-64
2023/03/03 06:01:43;;;;;;;;;;;;;;;5.38;84.56;99930.47;3159593;28;19932;-63
2023/03/03 06:03:15;;;;;;;;;;;;;;;5.38;84.45;99928.75;3159365;28;19924;-63
2023/03/03 06:04:47;;;;;;;;;;;;;;;5.38;84.55;99922.72;3170402;28;19939;-63
2023/03/03 06:06:19;;;;;;;;;;;;;;;5.39;84.63;99924.44;3172022;28;19973;-63
2023/03/03 06:07:50;;;;;;;;;;;;;;;5.40;84.47;99928.72;3171667;28;19974;-64
2023/03/03 06:09:22;;;;;;;;;;;;;;;5.41;84.51;99935.56;3172125;28;19927;-63
2023/03/03 06:10:52;;;;;;;;;;;;;;;5.42;84.47;99934.69;3171895;28;19934;-63
2023/03/03 06:12:24;;;;;;;;;;;;;;;5.43;84.58;99936.41;3171797;28;19924;-64
2023/03/03 06:13:56;;;;;;;;;;;;;;;5.44;84.50;99938.09;3171603;28;19947;-63
2023/03/03 06:15:27;;;;;;;;;;;;;;;5.44;84.64;99932.91;3171776;28;19927;-64
2023/03/03 06:17:00;;;;;;;;;;;;;;;5.46;84.35;99941.50;3171547;28;19977;-64
2023/03/03 06:18:32;;;;;;;;;;;;;;;5.47;84.39;99938.00;3171869;28;20465;-64
2023/03/03 06:20:04;;;;;;;;;;;;;;;5.47;84.39;99940.59;3171768;28;19953;-63
2023/03/03 06:21:35;;;;;;;;;;;;;;;5.46;84.56;99944.91;3171658;28;20461;-63
2023/03/03 06:23:07;;;;;;;;;;;;;;;5.46;84.58;99946.66;3171662;28;20278;-63
2023/03/03 06:24:38;;;;;;;;;;;;;;;5.46;84.50;99937.16;3171687;28;20308;-63
2023/03/03 06:26:09;;;;;;;;;;;;;;;5.47;84.64;99938.00;3169471;28;20289;-63
2023/03/03 06:27:40;;;;;;;;;;;;;;;5.46;84.44;99941.50;3167595;28;19930;-63
2023/03/03 06:29:12;;;;;;;;;;;;;;;5.47;84.46;99943.19;3171436;28;20000;-63
2023/03/03 06:30:44;;;;;;;;;;;;;;;5.46;84.61;99950.09;3184350;27;19928;-63
2023/03/03 06:32:16;;;;;;;;;;;;;;;5.46;84.61;99950.09;3184586;27;19930;-63
2023/03/03 06:33:48;;;;;;;;;;;;;;;5.47;84.39;99948.34;3176840;27;19924;-63
2023/03/03 06:35:20;;;;;;;;;;;;;;;5.48;84.31;99944.91;3171553;28;19931;-63
2023/03/03 06:36:52;;;;;;;;;;;;;;;5.49;84.52;99949.16;3171608;28;19958;-63
2023/03/03 06:38:23;;;;;;;;;;;;;;;5.51;84.55;99955.16;3171586;28;20328;-63
2023/03/03 06:39:55;;;;;;;;;;;;;;;5.53;84.37;99944.78;3171174;28;19924;-63
2023/03/03 06:41:26;;;;;;;;;;;;;;;5.54;84.18;99947.34;3171541;28;20341;-63
2023/03/03 06:42:58;;;;;;;;;;;;;;;5.55;84.25;99938.69;3171376;28;19924;-63
2023/03/03 06:44:29;;;;;;;;;;;;;;;5.56;84.01;99948.16;3171319;28;19924;-63
2023/03/03 06:46:01;;;;;;;;;;;;;;;5.57;84.00;99942.09;3171619;28;19961;-63
2023/03/03 06:47:34;;;;;;;;;;;;;;;5.59;83.94;99949.81;3171468;28;19927;-64
2023/03/03 06:49:06;;;;;;;;;;;;;;;5.58;84.08;99948.97;3171500;28;19924;-63
2023/03/03 06:50:38;;;;;;;;;;;;;;;5.59;83.91;99952.38;3171346;28;19928;-63
2023/03/03 06:52:12;;;;;;;;;;;;;;;5.59;84.10;99950.69;3171483;28;19935;-63
2023/03/03 06:53:43;;;;;;;;;;;;;;;5.61;84.13;99948.91;3171022;28;19924;-63
2023/03/03 06:55:18;;;;;;;;;;;;;;;5.65;84.03;99954.88;3171439;28;19924;-63
2023/03/03 06:56:52;;;;;;;;;;;;;;;5.68;83.87;99947.03;3171180;28;20000;-63
2023/03/03 06:58:24;;;;;;;;;;;;;;;5.69;83.91;99948.72;3171251;28;20442;-63
2023/03/03 06:59:57;;;;;;;;;;;;;;;5.72;83.73;99947.81;3171229;28;19927;-63
2023/03/03 07:01:30;;;;;;;;;;;;;;;5.74;83.75;99946.91;3171355;28;19923;-63
2023/03/03 07:03:08;;;;;;;;;;;;;;;5.77;83.70;99943.38;3170634;28;19980;-63
2023/03/03 07:04:39;;;;;;;;;;;;;;;5.79;83.60;99950.22;3171361;28;19923;-63
2023/03/03 07:06:16;;;;;;;;;;;;;;;5.82;83.62;99944.13;3158429;28;19924;-63
2023/03/03 07:07:48;;;;;;;;;;;;;;;5.86;83.84;99943.19;3158853;28;19924;-63
2023/03/03 07:09:22;;;;;;;;;;;;;;;5.87;83.60;99943.13;3158625;28;19924;-63
2023/03/03 07:10:54;;;;;;;;;;;;;;;5.90;83.52;99944.81;3158513;28;20423;-63
2023/03/03 07:12:27;;;;;;;;;;;;;;;5.90;83.50;99943.06;3168138;28;20387;-63
2023/03/03 07:13:58;;;;;;;;;;;;;;;5.95;83.33;99950.75;3171354;28;19924;-63
2023/03/03 07:15:33;;;;;;;;;;;;;;;5.98;83.44;99953.25;3170946;28;19924;-63
2023/03/03 07:17:10;;;;;;;;;;;;;;;6.00;83.33;99954.06;3170918;28;19936;-63
2023/03/03 07:18:47;;;;;;;;;;;;;;;6.02;83.21;99948.84;3170910;28;20377;-63
2023/03/03 07:20:20;;;;;;;;;;;;;;;6.03;83.07;99946.22;3171344;28;19931;-63
2023/03/03 07:21:51;;;;;;;;;;;;;;;6.07;83.19;99947.03;3171094;28;20676;-63
2023/03/03 07:23:24;;;;;;;;;;;;;;;6.09;83.12;99945.22;3170929;28;20052;-63
2023/03/03 07:24:59;;;;;;;;;;;;;;;6.11;83.15;99946.88;3171031;28;20364;-63
2023/03/03 07:26:32;;;;;;;;;;;;;;;6.10;82.79;99947.78;3170902;28;20002;-63
2023/03/03 07:28:13;;;;;;;;;;;;;;;6.11;82.97;99946.88;3170947;28;19928;-63
2023/03/03 07:29:46;;;;;;;;;;;;;;;6.13;82.83;99945.13;3175511;27;19924;-63
2023/03/03 07:31:27;;;;;;;;;;;;;;;6.15;82.88;99952.81;3183639;27;19980;-63
2023/03/03 07:32:59;;;;;;;;;;;;;;;6.14;82.92;99951.13;3170593;28;20381;-63
2023/03/03 07:34:36;;;;;;;;;;;;;;;6.17;82.87;99950.22;3158374;28;19925;-63
2023/03/03 07:36:19;;;;;;;;;;;;;;;6.18;82.80;99947.59;3158231;28;19978;-63
2023/03/03 07:37:51;;;;;;;;;;;;;;;6.20;82.73;99947.56;3157983;28;20413;-63
2023/03/03 07:39:30;;;;;;;;;;;;;;;6.21;82.60;99946.66;3158161;28;19947;-63
2023/03/03 07:41:03;;;;;;;;;;;;;;;6.22;82.63;99945.78;3158334;28;19950;-62
2023/03/03 07:42:38;;;;;;;;;;;;;;;6.24;82.32;99946.59;3158336;28;20428;-63
2023/03/03 07:44:16;;;;;;;;;;;;;;;6.26;82.28;99939.66;3160955;28;19924;-63
2023/03/03 07:45:48;;;;;;;;;;;;;;;6.28;82.40;99948.22;3170896;28;19924;-63
2023/03/03 07:47:20;;;;;;;;;;;;;;;6.28;82.33;99938.72;3170737;28;20337;-63
2023/03/03 07:48:52;;;;;;;;;;;;;;;6.31;82.12;99948.16;3170243;28;19927;-63
2023/03/03 07:50:25;;;;;;;;;;;;;;;6.30;82.11;99944.72;3170783;28;19924;-63
2023/03/03 07:51:57;;;;;;;;;;;;;;;6.32;82.30;99953.25;3170716;28;19931;-63
2023/03/03 07:53:33;;;;;;;;;;;;;;;6.35;82.18;99954.94;3168253;28;19924;-63
2023/03/03 07:55:20;;;;;;;;;;;;;;;6.37;82.13;99950.56;3160987;28;20007;-63
2023/03/03 07:56:52;;;;;;;;;;;;;;;6.36;81.86;99948.88;3159263;27;19924;-63
2023/03/03 07:58:27;;;;;;;;;;;;;;;6.34;81.64;99945.47;3157715;28;19924;-62
2023/03/03 08:00:01;;;;;;;;;;;;;;;6.32;81.63;99947.25;3158074;28;19928;-63
2023/03/03 08:01:41;;;;;;;;;;;;;;;6.31;81.51;99943.81;3162244;28;19985;-63
2023/03/03 08:03:16;;;;;;;;;;;;;;;6.31;81.28;99945.56;3170265;28;20022;-63
2023/03/03 08:04:51;;;;;;;;;;;;;;;6.33;81.30;99943.75;3170484;28;20439;-63
2023/03/03 08:06:40;;;;;;;;;;;;;;;6.35;81.46;99944.56;3170528;28;20014;-63
2023/03/03 08:08:16;;;;;;;;;;;;;;;6.36;81.17;99947.13;3170665;28;19958;-63